createdAt,value
2018-03-31T00:00:02.941Z,2
2018-03-31T00:05:03.107Z,1
2018-03-31T00:10:02.768Z,1
2018-03-31T00:15:03.344Z,1
2018-03-31T00:20:02.908Z,1
2018-03-31T00:25:02.520Z,1
2018-03-31T00:30:03.108Z,1
2018-03-31T00:35:02.673Z,1
2018-03-31T00:40:03.172Z,1
2018-03-31T00:45:02.657Z,1
2018-03-31T00:50:03.277Z,1
2018-03-31T00:55:02.818Z,1
2018-03-31T01:00:03.412Z,1
2018-03-31T01:05:02.868Z,2
2018-03-31T01:10:02.446Z,2
2018-03-31T01:15:02.939Z,2
2018-03-31T01:20:03.446Z,1
2018-03-31T01:25:02.974Z,1
2018-03-31T01:30:02.562Z,1
2018-03-31T01:35:03.158Z,1
2018-03-31T01:40:02.776Z,1
2018-03-31T01:45:03.408Z,1
2018-03-31T01:50:02.898Z,2
2018-03-31T01:55:03.446Z,1
2018-03-31T02:00:02.986Z,1
2018-03-31T02:05:02.568Z,1
2018-03-31T02:10:03.103Z,1
2018-03-31T02:15:02.812Z,1
2018-03-31T02:20:02.531Z,1
2018-03-31T02:25:03.130Z,1
2018-03-31T02:30:02.752Z,2
2018-03-31T02:35:03.340Z,1
2018-03-31T02:40:02.869Z,2
2018-03-31T02:45:02.556Z,1
2018-03-31T02:50:03.093Z,1
2018-03-31T02:55:02.702Z,1
2018-03-31T03:00:03.437Z,1
2018-03-31T03:05:02.994Z,1
2018-03-31T03:10:02.700Z,1
2018-03-31T03:15:03.224Z,1
2018-03-31T03:20:02.897Z,1
2018-03-31T03:25:03.450Z,1
2018-03-31T03:30:03.001Z,1
2018-03-31T03:35:02.765Z,1
2018-03-31T03:40:03.408Z,1
2018-03-31T03:45:02.926Z,1
2018-03-31T03:50:02.535Z,1
2018-03-31T03:55:03.149Z,1
2018-03-31T04:00:02.754Z,1
2018-03-31T04:05:03.369Z,1
2018-03-31T04:10:02.986Z,1
2018-03-31T04:15:02.538Z,1
2018-03-31T04:20:03.141Z,1
2018-03-31T04:25:02.713Z,1
2018-03-31T04:30:02.774Z,1
2018-03-31T04:35:03.286Z,2
2018-03-31T04:40:02.935Z,2
2018-03-31T04:45:02.569Z,3
2018-03-31T04:50:03.128Z,7
2018-03-31T04:55:02.681Z,15
2018-03-31T05:00:03.333Z,27
2018-03-31T05:05:02.842Z,38
2018-03-31T05:10:03.472Z,52
2018-03-31T05:15:03.049Z,64
2018-03-31T05:20:02.574Z,95
2018-03-31T05:25:03.125Z,128
2018-03-31T05:30:02.649Z,274
2018-03-31T05:35:03.231Z,325
2018-03-31T05:40:02.682Z,399
2018-03-31T05:45:03.296Z,473
2018-03-31T05:50:02.803Z,532
2018-03-31T05:55:03.396Z,613
2018-03-31T06:00:03.043Z,692
2018-03-31T06:05:02.662Z,771
2018-03-31T06:10:03.294Z,905
2018-03-31T06:15:02.912Z,969
2018-03-31T06:20:02.711Z,1000
2018-03-31T06:25:03.328Z,1000
2018-03-31T06:30:03.174Z,1000
2018-03-31T06:35:02.723Z,1000
2018-03-31T06:40:03.400Z,1000
2018-03-31T06:45:02.943Z,1000
2018-03-31T06:50:02.538Z,1000
2018-03-31T06:55:03.156Z,2000
2018-03-31T07:00:02.881Z,2000
2018-03-31T07:05:02.479Z,2000
2018-03-31T07:10:03.037Z,2000
2018-03-31T07:15:02.614Z,2000
2018-03-31T07:20:03.209Z,2000
2018-03-31T07:25:02.791Z,2000
2018-03-31T07:30:03.372Z,2000
2018-03-31T07:35:02.915Z,2000
2018-03-31T07:40:02.491Z,3000
2018-03-31T07:45:03.074Z,3000
2018-03-31T07:50:02.653Z,3000
2018-03-31T07:55:03.230Z,3000
2018-03-31T08:00:02.820Z,3000
2018-03-31T08:05:02.451Z,3000
2018-03-31T08:10:03.053Z,23000
2018-03-31T08:15:02.589Z,21000
2018-03-31T08:20:03.159Z,23000
2018-03-31T08:25:02.705Z,36000
2018-03-31T08:30:03.202Z,33000
2018-03-31T08:35:02.744Z,38000
2018-03-31T08:40:03.332Z,39000
2018-03-31T08:45:02.905Z,39000
2018-03-31T08:50:02.466Z,37000
2018-03-31T08:55:02.957Z,39000
2018-03-31T09:00:02.543Z,39000
2018-03-31T09:05:03.158Z,39000
2018-03-31T09:10:02.761Z,38000
2018-03-31T09:15:03.361Z,38000
2018-03-31T09:20:02.965Z,40000
2018-03-31T09:25:02.498Z,40000
2018-03-31T09:30:03.344Z,41000
2018-03-31T09:35:02.961Z,41000
2018-03-31T09:40:02.675Z,41000
2018-03-31T09:45:02.480Z,41000
2018-03-31T09:50:03.015Z,44000
2018-03-31T09:55:02.529Z,44000
2018-03-31T10:00:03.097Z,43000
2018-03-31T10:05:02.648Z,43000
2018-03-31T10:10:03.323Z,45000
2018-03-31T10:15:02.821Z,45000
2018-03-31T10:20:02.585Z,21000
2018-03-31T10:25:03.182Z,41000
2018-03-31T10:30:02.664Z,43000
2018-03-31T10:35:03.263Z,41000
2018-03-31T10:40:02.937Z,43000
2018-03-31T10:45:02.506Z,43000
2018-03-31T10:50:03.088Z,43000
2018-03-31T10:55:02.655Z,43000
2018-03-31T11:00:03.163Z,44000
2018-03-31T11:05:02.710Z,47000
2018-03-31T11:10:03.269Z,46000
2018-03-31T11:15:02.889Z,50000
2018-03-31T11:20:02.524Z,46000
2018-03-31T11:25:03.081Z,45000
2018-03-31T11:30:02.648Z,21000
2018-03-31T11:35:03.199Z,47000
2018-03-31T11:40:02.849Z,50000
2018-03-31T11:45:03.466Z,13000
2018-03-31T11:50:03.098Z,20000
2018-03-31T11:55:02.662Z,54000
2018-03-31T12:00:03.224Z,17000
2018-03-31T12:05:02.740Z,10000
2018-03-31T12:10:03.348Z,11000
2018-03-31T12:15:02.879Z,32000
2018-03-31T12:20:02.461Z,12000
2018-03-31T12:25:03.088Z,11000
2018-03-31T12:30:02.613Z,34000
2018-03-31T12:35:03.187Z,5000
2018-03-31T12:40:02.872Z,5000
2018-03-31T12:45:02.471Z,7000
2018-03-31T12:50:03.172Z,6000
2018-03-31T12:55:03.105Z,5000
2018-03-31T13:00:02.747Z,5000
2018-03-31T13:05:03.272Z,6000
2018-03-31T13:10:02.966Z,6000
2018-03-31T13:15:02.518Z,3000
2018-03-31T13:20:03.163Z,2000
2018-03-31T13:25:02.699Z,2000
2018-03-31T13:30:03.399Z,1000
2018-03-31T13:35:03.056Z,2000
2018-03-31T13:40:02.859Z,2000
2018-03-31T13:45:02.491Z,3000
2018-03-31T13:50:03.084Z,3000
2018-03-31T13:55:02.887Z,3000
2018-03-31T14:00:02.495Z,3000
2018-03-31T14:05:03.065Z,2000
2018-03-31T14:10:02.861Z,2000
2018-03-31T14:15:02.612Z,3000
2018-03-31T14:20:03.153Z,4000
2018-03-31T14:25:02.809Z,6000
2018-03-31T14:30:03.449Z,7000
2018-03-31T14:35:03.057Z,9000
2018-03-31T14:40:02.730Z,10000
2018-03-31T14:45:03.310Z,11000
2018-03-31T14:50:02.856Z,32000
2018-03-31T14:55:03.440Z,11000
2018-03-31T15:00:03.269Z,4000
2018-03-31T15:05:02.823Z,4000
2018-03-31T15:10:03.455Z,4000
2018-03-31T15:15:02.977Z,5000
2018-03-31T15:20:02.615Z,24000
2018-03-31T15:25:03.213Z,14000
2018-03-31T15:30:02.809Z,22000
2018-03-31T15:35:03.449Z,21000
2018-03-31T15:40:03.253Z,10000
2018-03-31T15:45:03.009Z,8000
2018-03-31T15:50:02.621Z,3000
2018-03-31T15:55:03.176Z,4000
2018-03-31T16:00:02.770Z,17000
2018-03-31T16:05:02.474Z,17000
2018-03-31T16:10:03.159Z,16000
2018-03-31T16:15:02.730Z,15000
2018-03-31T16:20:03.371Z,13000
2018-03-31T16:25:03.003Z,15000
2018-03-31T16:30:02.746Z,11000
2018-03-31T16:35:03.341Z,10000
2018-03-31T16:40:02.873Z,10000
2018-03-31T16:45:03.465Z,11000
2018-03-31T16:50:03.035Z,10000
2018-03-31T16:55:02.632Z,10000
2018-03-31T17:00:03.182Z,4000
2018-03-31T17:05:02.788Z,1000
2018-03-31T17:10:02.455Z,1000
2018-03-31T17:15:02.968Z,8000
2018-03-31T17:20:02.647Z,6000
2018-03-31T17:25:03.194Z,1000
2018-03-31T17:30:02.686Z,717
2018-03-31T17:35:03.421Z,621
2018-03-31T17:40:02.998Z,540
2018-03-31T17:45:02.601Z,456
2018-03-31T17:50:03.136Z,363
2018-03-31T17:55:02.623Z,283
2018-03-31T18:00:03.222Z,155
2018-03-31T18:05:02.763Z,74
2018-03-31T18:10:03.354Z,62
2018-03-31T18:15:02.895Z,40
2018-03-31T18:20:03.465Z,26
2018-03-31T18:25:02.929Z,13
2018-03-31T18:30:02.618Z,7
2018-03-31T18:35:03.208Z,3
2018-03-31T18:40:02.883Z,2
2018-03-31T18:45:03.465Z,1
2018-03-31T18:50:03.176Z,1
2018-03-31T18:55:02.756Z,1
2018-03-31T19:00:03.316Z,1
2018-03-31T19:05:02.864Z,1
2018-03-31T19:10:02.470Z,1
2018-03-31T19:15:03.162Z,1
2018-03-31T19:20:02.830Z,1
2018-03-31T19:25:02.523Z,1
2018-03-31T19:30:02.972Z,2
2018-03-31T19:35:02.522Z,1
2018-03-31T19:40:03.110Z,2
2018-03-31T19:45:02.694Z,1
2018-03-31T19:50:03.262Z,2
2018-03-31T19:55:02.768Z,1
2018-03-31T20:00:03.437Z,1
2018-03-31T20:05:02.967Z,1
2018-03-31T20:10:02.602Z,1
2018-03-31T20:15:03.212Z,1
2018-03-31T20:20:02.911Z,1
2018-03-31T20:25:02.476Z,1
2018-03-31T20:30:03.034Z,1
2018-03-31T20:35:02.656Z,1
2018-03-31T20:40:03.332Z,1
2018-03-31T20:45:03.294Z,1
2018-03-31T20:50:02.996Z,1
2018-03-31T20:55:02.572Z,1
2018-03-31T21:00:03.111Z,1
2018-03-31T21:05:02.758Z,1
2018-03-31T21:10:03.451Z,1
2018-03-31T21:15:03.107Z,1
2018-03-31T21:20:02.718Z,2
2018-03-31T21:25:03.328Z,1
2018-03-31T21:30:03.264Z,1
2018-03-31T21:35:02.904Z,1
2018-03-31T21:40:02.549Z,1
2018-03-31T21:45:03.093Z,1
2018-03-31T21:50:02.699Z,1
2018-03-31T21:55:03.323Z,2
2018-03-31T22:00:02.874Z,1
2018-03-31T22:05:02.578Z,1
2018-03-31T22:10:03.176Z,1
2018-03-31T22:15:02.765Z,1
2018-03-31T22:20:03.303Z,1
2018-03-31T22:25:02.926Z,1
2018-03-31T22:30:02.475Z,1
2018-03-31T22:35:03.104Z,1
2018-03-31T22:40:02.855Z,1
2018-03-31T22:45:03.456Z,1
2018-03-31T22:50:03.143Z,1
2018-03-31T22:55:02.733Z,1
2018-03-31T23:00:05.546Z,1
2018-03-31T23:05:02.489Z,1
2018-03-31T23:10:03.093Z,1
2018-03-31T23:15:02.630Z,1
2018-03-31T23:20:03.241Z,1
2018-03-31T23:25:02.785Z,1
2018-03-31T23:30:03.343Z,1
2018-03-31T23:35:02.870Z,1
2018-03-31T23:40:02.461Z,1
2018-03-31T23:45:03.112Z,1
2018-03-31T23:50:02.721Z,1
2018-03-31T23:55:03.321Z,1
